createdAt,value
2022-09-22T00:03:31.294Z,9.70
2022-09-22T00:13:34.056Z,9.70
2022-09-22T00:23:36.857Z,9.60
2022-09-22T00:33:40.767Z,9.50
2022-09-22T00:43:47.040Z,9.50
2022-09-22T00:53:50.791Z,9.40
2022-09-22T01:03:54.265Z,9.40
2022-09-22T01:14:20.747Z,9.30
2022-09-22T01:24:59.740Z,9.20
2022-09-22T01:35:25.191Z,9.20
2022-09-22T01:45:30.082Z,9.10
2022-09-22T01:55:40.912Z,9.00
2022-09-22T02:05:47.889Z,9.00
2022-09-22T02:16:00.212Z,8.90
2022-09-22T02:26:04.243Z,8.90
2022-09-22T02:36:33.780Z,8.80
2022-09-22T02:46:43.579Z,8.70
2022-09-22T02:56:45.501Z,8.60
2022-09-22T03:06:47.102Z,8.70
2022-09-22T03:16:48.733Z,8.60
2022-09-22T03:26:50.364Z,8.50
2022-09-22T03:36:52.001Z,8.50
2022-09-22T03:46:53.648Z,8.50
2022-09-22T03:56:56.363Z,8.60
2022-09-22T04:06:58.144Z,8.50
2022-09-22T04:16:59.794Z,8.50
2022-09-22T04:27:18.962Z,8.50
2022-09-22T04:37:21.393Z,8.60
2022-09-22T04:47:23.014Z,8.60
2022-09-22T04:57:24.750Z,8.60
2022-09-22T05:07:26.493Z,8.60
2022-09-22T05:17:28.560Z,8.60
2022-09-22T05:27:30.190Z,8.60
2022-09-22T05:37:31.775Z,8.70
2022-09-22T05:47:34.517Z,8.70
2022-09-22T05:57:36.249Z,8.60
2022-09-22T06:07:37.833Z,8.60
2022-09-22T06:17:39.461Z,8.70
2022-09-22T06:27:41.138Z,8.80
2022-09-22T06:37:42.896Z,8.80
2022-09-22T06:47:44.522Z,8.80
2022-09-22T06:57:46.722Z,9.00
2022-09-22T07:07:48.318Z,9.00
2022-09-22T07:17:53.398Z,9.10
2022-09-22T07:27:57.787Z,9.10
2022-09-22T07:38:02.194Z,9.20
2022-09-22T07:48:23.979Z,9.20
2022-09-22T07:58:25.887Z,9.30
2022-09-22T08:08:27.629Z,9.40
2022-09-22T08:18:31.007Z,9.70
2022-09-22T08:28:33.158Z,9.90
2022-09-22T08:38:34.819Z,10.70
2022-09-22T08:48:56.967Z,10.80
2022-09-22T08:59:17.822Z,11.40
2022-09-22T09:09:35.375Z,12.20
2022-09-22T09:19:42.374Z,12.30
2022-09-22T09:29:56.400Z,12.70
2022-09-22T09:40:02.679Z,13.30
2022-09-22T09:50:04.863Z,13.50
2022-09-22T10:00:33.191Z,13.90
2022-09-22T10:10:41.068Z,14.20
2022-09-22T10:20:42.767Z,14.80
2022-09-22T10:31:06.551Z,14.90
2022-09-22T10:41:12.680Z,15.00
2022-09-22T10:51:59.231Z,15.30
2022-09-22T11:02:45.349Z,15.50
2022-09-22T11:13:05.738Z,15.70
2022-09-22T11:23:34.631Z,15.90
2022-09-22T11:33:48.358Z,16.10
2022-09-22T11:44:05.792Z,16.30
2022-09-22T11:54:32.994Z,16.50
2022-09-22T12:04:40.282Z,16.80
2022-09-22T12:14:42.490Z,17.10
2022-09-22T12:24:47.916Z,17.40
2022-09-22T12:34:50.732Z,17.70
2022-09-22T12:44:58.514Z,17.90
2022-09-22T12:55:28.803Z,17.90
2022-09-22T13:05:31.084Z,18.10
2022-09-22T13:15:49.349Z,18.20
2022-09-22T13:25:52.167Z,18.20
2022-09-22T13:36:07.874Z,18.20
2022-09-22T13:46:26.271Z,18.30
2022-09-22T13:56:28.165Z,18.40
2022-09-22T14:06:32.983Z,18.50
2022-09-22T14:16:56.599Z,18.30
2022-09-22T14:27:04.510Z,17.90
2022-09-22T14:37:20.471Z,17.40
2022-09-22T14:47:29.314Z,17.30
2022-09-22T14:57:30.925Z,17.50
2022-09-22T15:07:35.918Z,17.90
2022-09-22T15:18:00.343Z,18.20
2022-09-22T15:28:11.172Z,18.00
2022-09-22T15:38:23.991Z,17.70
2022-09-22T15:48:42.002Z,17.40
2022-09-22T15:58:43.923Z,17.40
2022-09-22T16:08:51.583Z,17.30
2022-09-22T16:18:54.975Z,17.10
2022-09-22T16:28:56.708Z,17.00
2022-09-22T16:38:58.669Z,16.90
2022-09-22T16:49:07.075Z,16.80
2022-09-22T16:59:09.081Z,16.70
2022-09-22T17:09:12.496Z,16.50
2022-09-22T17:19:19.723Z,16.20
2022-09-22T17:29:24.896Z,15.90
2022-09-22T17:39:28.587Z,15.60
2022-09-22T17:49:48.794Z,15.20
2022-09-22T17:59:51.437Z,15.10
2022-09-22T18:09:56.314Z,14.90
2022-09-22T18:19:59.210Z,14.60
2022-09-22T18:30:00.942Z,14.40
2022-09-22T18:40:03.468Z,14.10
2022-09-22T18:50:05.532Z,13.90
2022-09-22T19:00:08.917Z,13.70
2022-09-22T19:10:12.631Z,13.50
2022-09-22T19:20:17.494Z,13.30
2022-09-22T19:30:22.891Z,13.00
2022-09-22T19:40:26.346Z,12.90
2022-09-22T19:50:28.072Z,12.60
2022-09-22T20:00:31.909Z,12.60
2022-09-22T20:10:36.952Z,12.40
2022-09-22T20:20:38.594Z,12.20
2022-09-22T20:30:42.088Z,12.00
2022-09-22T20:40:44.309Z,12.00
2022-09-22T20:50:57.795Z,11.80
2022-09-22T21:01:00.200Z,11.80
2022-09-22T21:11:02.104Z,11.80
2022-09-22T21:21:06.776Z,11.60
2022-09-22T21:31:10.402Z,11.50
2022-09-22T21:41:18.230Z,11.30
2022-09-22T21:51:21.815Z,11.10
2022-09-22T22:01:29.361Z,11.00
2022-09-22T22:11:36.944Z,10.80
2022-09-22T22:21:42.948Z,10.60
2022-09-22T22:31:45.261Z,10.60
2022-09-22T22:41:48.806Z,10.50
2022-09-22T22:51:52.346Z,10.50
2022-09-22T23:01:54.124Z,10.40
2022-09-22T23:11:55.811Z,10.30
2022-09-22T23:21:59.060Z,10.30
2022-09-22T23:32:00.757Z,10.30
2022-09-22T23:42:02.359Z,10.20
2022-09-22T23:52:04.023Z,10.10
